Time;durP1;ratioP1;P1;durP2;ratioP2;P2;SDS_P1;SDS_P2;PMS_P1;PMS_P2;Temp;Humidity;BMP_temperature;BMP_pressure;BME280_temperature;BME280_humidity;BME280_pressure;Samples;Min_cycle;Max_cycle;Signal;HPM_P1;HPM_P2
2022/03/22 00:00:40;;;;;;;;;;;20.80;37.30;;;;;;5055555;28;20012;-40
2022/03/22 00:03:07;;;;;;;;;;;20.80;37.30;;;;;;5054540;28;19925;-41
2022/03/22 00:05:37;;;;;;;;;;;20.80;37.40;;;;;;5055742;28;19924;-40
2022/03/22 00:08:05;;;;;;;;;;;20.80;37.30;;;;;;5055934;28;19970;-40
2022/03/22 00:10:32;;;;;;;;;;;20.80;37.40;;;;;;5055220;28;19971;-40
2022/03/22 00:12:59;;;;;;;;;;;20.80;37.30;;;;;;5055618;28;19924;-39
2022/03/22 00:15:26;;;;;;;;;;;20.80;37.40;;;;;;5055551;28;20041;-40
2022/03/22 00:18:13;;;;;;;;;;;20.80;37.30;;;;;;5053975;28;19932;-40
2022/03/22 00:20:42;;;;;;;;;;;20.80;37.40;;;;;;5059881;28;19929;-43
2022/03/22 00:23:09;;;;;;;;;;;20.80;37.40;;;;;;5075072;28;19970;-39
2022/03/22 00:25:36;;;;;;;;;;;20.80;37.30;;;;;;5075371;28;19980;-39
2022/03/22 00:28:03;;;;;;;;;;;20.80;37.40;;;;;;5075210;28;20023;-40
2022/03/22 00:30:31;;;;;;;;;;;20.80;37.40;;;;;;5074930;28;19930;-39
2022/03/22 00:32:59;;;;;;;;;;;20.80;38.00;;;;;;5074927;28;19924;-39
2022/03/22 00:35:28;;;;;;;;;;;20.80;37.30;;;;;;5073890;28;20015;-39
2022/03/22 00:37:56;;;;;;;;;;;20.80;37.40;;;;;;5074766;28;19974;-40
2022/03/22 00:40:27;;;;;;;;;;;20.80;37.40;;;;;;5074603;28;19925;-39
2022/03/22 00:42:54;;;;;;;;;;;20.80;37.40;;;;;;5057485;28;19925;-39
2022/03/22 00:45:22;;;;;;;;;;;20.80;37.40;;;;;;5074963;28;19978;-39
2022/03/22 00:47:51;;;;;;;;;;;20.80;37.40;;;;;;5074527;28;19931;-39
2022/03/22 00:50:19;;;;;;;;;;;20.80;37.40;;;;;;5058831;28;19979;-39
2022/03/22 00:52:46;;;;;;;;;;;20.80;37.40;;;;;;5054930;28;19924;-40
2022/03/22 00:55:13;;;;;;;;;;;20.80;37.40;;;;;;5054794;28;19954;-39
2022/03/22 00:57:41;;;;;;;;;;;20.80;37.40;;;;;;5036799;28;20389;-39
2022/03/22 01:00:10;;;;;;;;;;;20.80;37.40;;;;;;5054344;28;19968;-40
2022/03/22 01:02:41;;;;;;;;;;;20.80;37.40;;;;;;5054695;28;19971;-39
2022/03/22 01:05:13;;;;;;;;;;;20.80;37.40;;;;;;5065286;28;19960;-39
2022/03/22 01:07:41;;;;;;;;;;;20.70;37.40;;;;;;5074191;28;20019;-40
2022/03/22 01:10:09;;;;;;;;;;;20.70;37.40;;;;;;5074053;28;19959;-41
2022/03/22 01:12:38;;;;;;;;;;;20.70;37.40;;;;;;5074440;28;19924;-40
2022/03/22 01:15:06;;;;;;;;;;;20.70;37.40;;;;;;5074118;28;20439;-40
2022/03/22 01:17:33;;;;;;;;;;;20.70;37.40;;;;;;5074073;28;19924;-39
2022/03/22 01:20:01;;;;;;;;;;;20.70;37.40;;;;;;5071606;28;19924;-41
2022/03/22 01:22:28;;;;;;;;;;;20.70;37.40;;;;;;5074166;28;20334;-40
2022/03/22 01:24:55;;;;;;;;;;;20.70;37.40;;;;;;5073966;28;19928;-39
2022/03/22 01:27:27;;;;;;;;;;;20.70;37.40;;;;;;5073901;28;19983;-41
2022/03/22 01:29:54;;;;;;;;;;;20.70;37.40;;;;;;5073924;28;19954;-41
2022/03/22 01:32:21;;;;;;;;;;;20.70;37.40;;;;;;5074072;28;19932;-39
2022/03/22 01:34:48;;;;;;;;;;;20.70;37.50;;;;;;5072839;28;20319;-39
2022/03/22 01:37:15;;;;;;;;;;;20.70;37.50;;;;;;5073832;28;20445;-40
2022/03/22 01:39:42;;;;;;;;;;;20.70;37.40;;;;;;5073638;28;19924;-41
2022/03/22 01:42:09;;;;;;;;;;;20.70;37.50;;;;;;5074065;28;19970;-41
2022/03/22 01:44:36;;;;;;;;;;;20.70;37.50;;;;;;5073741;28;20396;-41
2022/03/22 01:47:03;;;;;;;;;;;20.70;37.40;;;;;;5074036;28;20265;-40
2022/03/22 01:49:30;;;;;;;;;;;20.70;37.40;;;;;;5072461;28;20291;-40
2022/03/22 01:51:57;;;;;;;;;;;20.70;37.40;;;;;;5055837;28;20008;-40
2022/03/22 01:54:24;;;;;;;;;;;20.70;37.50;;;;;;5073967;28;19924;-39
2022/03/22 01:56:51;;;;;;;;;;;20.70;37.50;;;;;;5073631;28;19975;-41
2022/03/22 01:59:18;;;;;;;;;;;20.70;37.50;;;;;;5073907;28;20015;-42
2022/03/22 02:07:21;;;;;;;;;;;20.70;37.50;;;;;;5054085;28;19974;-40
2022/03/22 02:09:48;;;;;;;;;;;20.70;37.50;;;;;;5053642;28;19948;-43
2022/03/22 02:12:15;;;;;;;;;;;20.70;37.50;;;;;;5053431;28;20380;-39
2022/03/22 02:14:42;;;;;;;;;;;20.70;37.50;;;;;;5053411;28;20396;-42
2022/03/22 02:17:09;;;;;;;;;;;20.60;37.40;;;;;;5055609;28;20018;-41
2022/03/22 02:19:39;;;;;;;;;;;20.70;37.50;;;;;;5057281;28;20383;-42
2022/03/22 02:22:08;;;;;;;;;;;20.60;37.40;;;;;;5077180;28;19980;-38
2022/03/22 02:24:36;;;;;;;;;;;20.60;37.40;;;;;;5077357;28;19931;-38
2022/03/22 02:27:03;;;;;;;;;;;20.60;37.40;;;;;;5077291;28;19931;-41
2022/03/22 02:29:30;;;;;;;;;;;20.60;37.50;;;;;;5077505;28;19978;-41
2022/03/22 02:31:57;;;;;;;;;;;20.60;37.50;;;;;;5077504;28;19925;-40
2022/03/22 02:34:24;;;;;;;;;;;20.60;37.50;;;;;;5077148;28;19925;-39
2022/03/22 02:36:51;;;;;;;;;;;20.60;37.50;;;;;;5075607;28;20035;-44
2022/03/22 02:39:19;;;;;;;;;;;20.60;37.50;;;;;;5077372;28;19924;-39
2022/03/22 02:41:48;;;;;;;;;;;20.60;37.50;;;;;;5077905;28;20372;-39
2022/03/22 02:44:16;;;;;;;;;;;20.60;37.50;;;;;;5076981;28;19925;-39
2022/03/22 02:46:43;;;;;;;;;;;20.60;37.50;;;;;;5077232;28;19931;-40
2022/03/22 02:49:10;;;;;;;;;;;20.60;37.50;;;;;;5076808;28;19924;-39
2022/03/22 02:51:37;;;;;;;;;;;20.60;37.50;;;;;;5060446;28;19924;-39
2022/03/22 02:54:05;;;;;;;;;;;20.60;37.50;;;;;;5057934;28;19951;-39
2022/03/22 02:56:32;;;;;;;;;;;20.60;37.50;;;;;;5057064;28;20348;-41
2022/03/22 02:59:00;;;;;;;;;;;20.60;37.50;;;;;;5039054;28;19955;-41
2022/03/22 03:01:27;;;;;;;;;;;20.60;37.50;;;;;;5057005;28;20003;-39
2022/03/22 03:03:55;;;;;;;;;;;20.60;37.60;;;;;;5056950;28;20327;-40
2022/03/22 03:06:22;;;;;;;;;;;20.60;37.50;;;;;;5067424;28;19932;-38
2022/03/22 03:08:49;;;;;;;;;;;20.60;37.60;;;;;;5076976;28;19930;-42
2022/03/22 03:11:15;;;;;;;;;;;20.60;37.60;;;;;;5076378;28;20019;-39
2022/03/22 03:16:28;;;;;;;;;;;20.60;38.20;;;;;;5076492;28;20371;-41
2022/03/22 03:18:55;;;;;;;;;;;20.60;37.60;;;;;;5076696;28;19925;-39
2022/03/22 03:21:22;;;;;;;;;;;20.60;37.60;;;;;;5074379;28;19967;-40
2022/03/22 03:23:49;;;;;;;;;;;20.60;37.60;;;;;;5076278;28;19974;-40
2022/03/22 03:26:16;;;;;;;;;;;20.60;37.60;;;;;;5059633;28;20335;-39
2022/03/22 03:28:43;;;;;;;;;;;20.60;37.50;;;;;;5076008;28;19974;-40
2022/03/22 03:31:10;;;;;;;;;;;20.60;37.50;;;;;;5076130;28;19972;-39
2022/03/22 03:33:37;;;;;;;;;;;20.60;37.60;;;;;;5076118;28;20422;-44
2022/03/22 03:36:04;;;;;;;;;;;20.60;37.60;;;;;;5068104;28;20388;-43
2022/03/22 03:38:31;;;;;;;;;;;20.60;37.50;;;;;;5056210;28;19929;-41
2022/03/22 03:43:44;;;;;;;;;;;20.60;37.60;;;;;;5055903;28;19987;-39
2022/03/22 03:48:57;;;;;;;;;;;20.60;37.60;;;;;;5055749;28;19968;-40
2022/03/22 03:51:28;;;;;;;;;;;20.60;37.60;;;;;;5063108;28;20346;-41
2022/03/22 03:53:55;;;;;;;;;;;20.60;37.60;;;;;;5075947;28;19978;-41
2022/03/22 03:56:21;;;;;;;;;;;20.60;37.60;;;;;;5075942;28;19928;-43
2022/03/22 03:58:48;;;;;;;;;;;20.60;37.60;;;;;;5075890;28;19974;-40
2022/03/22 04:01:15;;;;;;;;;;;20.60;37.60;;;;;;5075563;28;19928;-45
2022/03/22 04:03:46;;;;;;;;;;;20.50;37.60;;;;;;5075519;28;19924;-41
2022/03/22 04:06:12;;;;;;;;;;;20.60;37.60;;;;;;5073662;28;19978;-39
2022/03/22 04:08:39;;;;;;;;;;;20.60;37.60;;;;;;5075289;28;20380;-39
2022/03/22 04:11:06;;;;;;;;;;;20.50;37.60;;;;;;5075228;28;20372;-38
2022/03/22 04:13:35;;;;;;;;;;;20.50;37.60;;;;;;5058011;28;19931;-40
2022/03/22 04:16:02;;;;;;;;;;;20.50;37.60;;;;;;5075533;28;19931;-40
2022/03/22 04:18:29;;;;;;;;;;;20.50;37.60;;;;;;5075221;28;19928;-40
2022/03/22 04:20:56;;;;;;;;;;;20.50;37.60;;;;;;5072585;28;19974;-39
2022/03/22 04:23:23;;;;;;;;;;;20.60;37.60;;;;;;5075129;28;20415;-39
2022/03/22 04:25:50;;;;;;;;;;;20.50;37.50;;;;;;5075396;28;19931;-39
2022/03/22 04:33:47;;;;;;;;;;;20.50;37.60;;;;;;5075520;28;19950;-40
2022/03/22 04:36:14;;;;;;;;;;;20.50;37.60;;;;;;5073251;28;19951;-39
2022/03/22 04:38:41;;;;;;;;;;;20.50;37.60;;;;;;5057340;28;19968;-41
2022/03/22 04:41:08;;;;;;;;;;;20.50;37.50;;;;;;5074304;28;20384;-39
2022/03/22 04:43:35;;;;;;;;;;;20.50;37.60;;;;;;5075016;28;19924;-40
2022/03/22 04:46:02;;;;;;;;;;;20.50;37.60;;;;;;5074989;28;19974;-39
2022/03/22 04:48:29;;;;;;;;;;;20.50;37.60;;;;;;5074827;28;20023;-39
2022/03/22 04:59:14;;;;;;;;;;;20.50;37.60;;;;;;5055034;28;19955;-39
2022/03/22 05:01:42;;;;;;;;;;;20.50;37.60;;;;;;5055521;28;19928;-39
2022/03/22 05:04:10;;;;;;;;;;;20.50;37.60;;;;;;5054656;28;19925;-39
2022/03/22 05:06:37;;;;;;;;;;;20.50;37.60;;;;;;5056370;28;20051;-40
2022/03/22 05:09:05;;;;;;;;;;;20.50;37.60;;;;;;5074508;28;20014;-40
2022/03/22 05:11:32;;;;;;;;;;;20.50;37.60;;;;;;5074082;28;19974;-40
2022/03/22 05:13:59;;;;;;;;;;;20.50;37.60;;;;;;5074159;28;19929;-40
2022/03/22 05:16:26;;;;;;;;;;;20.50;37.60;;;;;;5074086;28;19924;-40
2022/03/22 05:18:54;;;;;;;;;;;20.50;37.60;;;;;;5074392;28;19932;-39
2022/03/22 05:21:21;;;;;;;;;;;20.50;37.60;;;;;;5072587;28;19968;-40
2022/03/22 05:23:48;;;;;;;;;;;20.50;37.60;;;;;;5073728;28;19924;-41
2022/03/22 05:26:15;;;;;;;;;;;20.50;37.60;;;;;;5073945;28;19968;-39
2022/03/22 05:28:44;;;;;;;;;;;20.50;37.60;;;;;;5074208;28;20371;-40
2022/03/22 05:31:12;;;;;;;;;;;20.50;37.50;;;;;;5074177;28;19960;-39
2022/03/22 05:33:39;;;;;;;;;;;20.50;37.50;;;;;;5073897;28;19924;-40
2022/03/22 05:36:07;;;;;;;;;;;20.50;37.50;;;;;;5074735;28;19968;-40
2022/03/22 05:38:34;;;;;;;;;;;20.50;37.60;;;;;;5056450;28;20003;-40
2022/03/22 05:41:04;;;;;;;;;;;20.50;37.50;;;;;;5053576;28;19979;-41
2022/03/22 05:43:31;;;;;;;;;;;20.50;37.50;;;;;;5054020;28;19951;-40
2022/03/22 05:45:58;;;;;;;;;;;20.50;37.50;;;;;;5053955;28;19950;-40
2022/03/22 05:48:26;;;;;;;;;;;20.50;37.50;;;;;;5053619;28;20016;-40
2022/03/22 05:50:53;;;;;;;;;;;20.50;37.50;;;;;;5053030;28;20335;-44
2022/03/22 05:53:20;;;;;;;;;;;20.50;37.40;;;;;;5052315;28;20007;-46
2022/03/22 05:55:47;;;;;;;;;;;20.50;37.40;;;;;;5036025;28;19971;-41
2022/03/22 05:58:14;;;;;;;;;;;20.50;37.40;;;;;;5053545;28;19925;-40
2022/03/22 06:00:42;;;;;;;;;;;20.50;37.40;;;;;;5053566;28;20376;-43
2022/03/22 06:03:09;;;;;;;;;;;20.50;37.40;;;;;;5053832;28;20284;-43
2022/03/22 06:05:37;;;;;;;;;;;20.50;37.40;;;;;;5052586;28;19932;-44
2022/03/22 06:08:04;;;;;;;;;;;20.60;37.50;;;;;;5062383;28;19999;-40
2022/03/22 06:10:37;;;;;;;;;;;20.60;37.50;;;;;;5073757;28;20326;-45
2022/03/22 06:13:04;;;;;;;;;;;20.60;37.40;;;;;;5073495;28;19968;-43
2022/03/22 06:15:31;;;;;;;;;;;20.60;37.40;;;;;;5073474;28;19979;-40
2022/03/22 06:18:00;;;;;;;;;;;20.60;37.40;;;;;;5055909;28;19925;-41
2022/03/22 06:20:31;;;;;;;;;;;20.60;37.40;;;;;;5055516;28;19968;-41
2022/03/22 06:23:00;;;;;;;;;;;20.60;37.40;;;;;;5065406;28;20308;-39
2022/03/22 06:25:27;;;;;;;;;;;20.60;37.40;;;;;;5053608;28;20331;-41
2022/03/22 06:27:55;;;;;;;;;;;20.60;37.40;;;;;;5053258;28;19925;-41
2022/03/22 06:30:23;;;;;;;;;;;20.60;37.40;;;;;;5053753;28;19928;-41
2022/03/22 06:32:51;;;;;;;;;;;20.60;37.40;;;;;;5053230;28;20442;-43
2022/03/22 06:35:20;;;;;;;;;;;20.60;37.40;;;;;;5053205;28;20373;-41
2022/03/22 06:37:48;;;;;;;;;;;20.60;37.40;;;;;;5056973;28;19964;-41
2022/03/22 06:40:16;;;;;;;;;;;20.60;37.40;;;;;;5073107;28;19964;-42
2022/03/22 06:42:43;;;;;;;;;;;20.60;37.40;;;;;;5074605;28;19925;-40
2022/03/22 06:45:11;;;;;;;;;;;20.60;37.40;;;;;;5073505;28;20327;-40
2022/03/22 06:47:42;;;;;;;;;;;20.60;37.40;;;;;;5073115;28;19924;-42
2022/03/22 06:50:10;;;;;;;;;;;20.60;37.40;;;;;;5073594;28;19924;-40
2022/03/22 06:52:38;;;;;;;;;;;20.60;37.40;;;;;;5071324;28;19928;-41
2022/03/22 06:55:05;;;;;;;;;;;20.60;37.30;;;;;;5073291;28;19931;-40
2022/03/22 06:57:33;;;;;;;;;;;20.60;37.30;;;;;;5073397;28;20340;-43
2022/03/22 07:00:00;;;;;;;;;;;20.60;37.30;;;;;;5073324;28;20330;-41
2022/03/22 07:02:27;;;;;;;;;;;20.60;37.20;;;;;;5073966;28;19924;-40
2022/03/22 07:04:54;;;;;;;;;;;20.60;37.30;;;;;;5076892;28;20384;-40
2022/03/22 07:07:22;;;;;;;;;;;20.60;37.20;;;;;;5076537;28;19976;-43
2022/03/22 07:09:49;;;;;;;;;;;20.60;37.20;;;;;;5074638;28;20027;-44
2022/03/22 07:12:16;;;;;;;;;;;20.60;37.20;;;;;;5076491;28;20041;-41
2022/03/22 07:14:44;;;;;;;;;;;20.60;37.20;;;;;;5076419;28;19925;-40
2022/03/22 07:17:11;;;;;;;;;;;20.60;37.20;;;;;;5076364;28;19932;-39
2022/03/22 07:19:39;;;;;;;;;;;20.70;37.30;;;;;;5076848;28;19925;-40
2022/03/22 07:22:06;;;;;;;;;;;20.60;37.20;;;;;;5075938;28;20015;-43
2022/03/22 07:24:34;;;;;;;;;;;20.60;37.20;;;;;;5060744;28;20032;-43
2022/03/22 07:27:01;;;;;;;;;;;20.70;37.20;;;;;;5056431;28;19963;-42
2022/03/22 07:29:28;;;;;;;;;;;20.70;37.20;;;;;;5056070;28;19979;-44
2022/03/22 07:31:57;;;;;;;;;;;20.70;37.20;;;;;;5056063;28;19971;-43
2022/03/22 07:34:24;;;;;;;;;;;20.70;37.20;;;;;;5056011;28;20385;-42
2022/03/22 07:36:54;;;;;;;;;;;20.70;37.20;;;;;;5056031;28;19925;-42
2022/03/22 07:39:23;;;;;;;;;;;20.70;37.20;;;;;;5067466;28;19928;-43
2022/03/22 07:41:50;;;;;;;;;;;20.70;37.20;;;;;;5075917;28;19955;-43
2022/03/22 07:44:20;;;;;;;;;;;20.70;37.20;;;;;;5076729;28;20027;-43
2022/03/22 07:46:47;;;;;;;;;;;20.70;37.20;;;;;;5076135;28;19950;-41
2022/03/22 07:54:46;;;;;;;;;;;20.70;37.10;;;;;;5060719;28;20011;-40
2022/03/22 07:57:13;;;;;;;;;;;20.70;37.20;;;;;;5055632;28;20450;-40
2022/03/22 07:59:40;;;;;;;;;;;20.70;37.10;;;;;;5055629;28;19978;-43
2022/03/22 08:02:07;;;;;;;;;;;20.70;37.10;;;;;;5055866;28;19975;-41
2022/03/22 08:04:35;;;;;;;;;;;20.70;37.10;;;;;;5055842;28;20011;-43
2022/03/22 08:07:02;;;;;;;;;;;20.70;37.10;;;;;;5055385;28;20450;-46
2022/03/22 08:09:29;;;;;;;;;;;20.70;37.00;;;;;;5065105;28;19925;-42
2022/03/22 08:11:56;;;;;;;;;;;20.70;37.00;;;;;;5075326;28;19924;-41
2022/03/22 08:14:23;;;;;;;;;;;20.70;37.00;;;;;;5074762;28;19931;-40
2022/03/22 08:16:50;;;;;;;;;;;20.70;37.00;;;;;;5075256;28;20352;-41
2022/03/22 08:19:20;;;;;;;;;;;20.70;36.90;;;;;;5075162;28;19924;-43
2022/03/22 08:21:48;;;;;;;;;;;20.70;36.90;;;;;;5074879;28;19924;-45
2022/03/22 08:24:15;;;;;;;;;;;20.70;36.80;;;;;;5073645;28;20434;-42
2022/03/22 08:26:42;;;;;;;;;;;20.70;36.80;;;;;;5075053;28;20292;-46
2022/03/22 08:29:09;;;;;;;;;;;20.80;36.90;;;;;;5076030;28;20018;-46
2022/03/22 08:31:41;;;;;;;;;;;20.80;36.80;;;;;;5075295;28;19925;-40
2022/03/22 08:34:08;;;;;;;;;;;20.80;36.80;;;;;;5075420;28;19932;-42
2022/03/22 08:36:35;;;;;;;;;;;20.80;36.80;;;;;;5075102;28;20011;-43
2022/03/22 08:39:02;;;;;;;;;;;20.80;36.70;;;;;;5073536;28;19935;-44
2022/03/22 08:41:30;;;;;;;;;;;20.80;36.70;;;;;;5074758;28;19978;-41
2022/03/22 08:43:57;;;;;;;;;;;20.80;36.60;;;;;;5074983;28;20003;-45
2022/03/22 08:46:24;;;;;;;;;;;20.80;36.60;;;;;;5075481;28;19971;-43
2022/03/22 08:48:52;;;;;;;;;;;20.80;36.50;;;;;;5074530;28;19925;-41
2022/03/22 08:51:20;;;;;;;;;;;20.80;36.50;;;;;;5074365;28;20046;-46
2022/03/22 08:53:47;;;;;;;;;;;20.80;36.50;;;;;;5072760;28;20046;-45
2022/03/22 08:56:15;;;;;;;;;;;20.90;36.50;;;;;;5074677;28;20019;-46
2022/03/22 08:58:42;;;;;;;;;;;20.90;36.50;;;;;;5074623;28;19928;-42
2022/03/22 09:01:09;;;;;;;;;;;20.90;36.50;;;;;;5074256;28;20007;-40
2022/03/22 09:03:38;;;;;;;;;;;20.90;36.50;;;;;;5075096;28;19932;-41
2022/03/22 09:06:08;;;;;;;;;;;20.90;36.50;;;;;;5074476;28;19924;-40
2022/03/22 09:08:36;;;;;;;;;;;20.90;36.40;;;;;;5074113;28;19931;-41
2022/03/22 09:11:04;;;;;;;;;;;20.90;36.40;;;;;;5072366;28;19932;-45
2022/03/22 09:13:37;;;;;;;;;;;20.90;36.40;;;;;;5074011;28;19932;-41
2022/03/22 09:16:05;;;;;;;;;;;21.00;36.40;;;;;;5074108;28;19924;-45
2022/03/22 09:18:32;;;;;;;;;;;21.00;36.40;;;;;;5074263;28;19987;-45
2022/03/22 09:21:00;;;;;;;;;;;21.00;36.40;;;;;;5073952;28;19924;-41
2022/03/22 09:23:27;;;;;;;;;;;21.00;36.40;;;;;;5074286;28;20288;-42
2022/03/22 09:25:54;;;;;;;;;;;21.00;36.30;;;;;;5072486;28;19925;-41
2022/03/22 09:28:21;;;;;;;;;;;21.00;36.30;;;;;;5073845;28;19929;-41
2022/03/22 09:30:48;;;;;;;;;;;21.10;36.40;;;;;;5073841;28;19979;-41
2022/03/22 09:33:16;;;;;;;;;;;21.10;36.40;;;;;;5074072;28;20334;-41
2022/03/22 09:35:43;;;;;;;;;;;21.10;36.40;;;;;;5073805;28;20011;-45
2022/03/22 09:38:16;;;;;;;;;;;21.10;36.30;;;;;;5074096;28;19932;-40
2022/03/22 09:40:43;;;;;;;;;;;21.10;36.30;;;;;;5072502;28;19974;-43
2022/03/22 09:43:11;;;;;;;;;;;21.10;36.30;;;;;;5073720;28;20000;-42
2022/03/22 09:45:39;;;;;;;;;;;21.10;36.30;;;;;;5055951;28;19924;-43
2022/03/22 09:48:12;;;;;;;;;;;21.10;36.20;;;;;;5074143;28;20427;-40
2022/03/22 09:53:25;;;;;;;;;;;21.20;36.30;;;;;;5073572;28;19925;-41
2022/03/22 09:55:52;;;;;;;;;;;21.20;36.20;;;;;;5072264;28;19964;-40
2022/03/22 09:58:19;;;;;;;;;;;21.20;36.20;;;;;;5073507;28;19978;-46
2022/03/22 10:00:47;;;;;;;;;;;21.20;36.20;;;;;;5073491;28;20015;-40
2022/03/22 10:03:18;;;;;;;;;;;21.30;36.20;;;;;;5073496;28;20380;-42
2022/03/22 10:05:57;;;;;;;;;;;21.30;36.20;;;;;;5073862;28;19924;-39
2022/03/22 10:08:24;;;;;;;;;;;21.30;36.20;;;;;;5073827;28;20007;-41
2022/03/22 10:10:52;;;;;;;;;;;21.30;36.10;;;;;;5071791;28;19925;-41
2022/03/22 10:13:19;;;;;;;;;;;21.30;36.10;;;;;;5073663;28;20015;-43
2022/03/22 10:15:46;;;;;;;;;;;21.30;36.00;;;;;;5073691;28;19950;-46
2022/03/22 10:18:13;;;;;;;;;;;21.40;36.10;;;;;;5073713;28;20336;-40
2022/03/22 10:20:41;;;;;;;;;;;21.40;36.10;;;;;;5072959;28;20031;-44
2022/03/22 10:23:10;;;;;;;;;;;21.40;36.00;;;;;;5073711;28;19932;-47
2022/03/22 10:25:38;;;;;;;;;;;21.40;36.00;;;;;;5072208;28;19925;-44
2022/03/22 10:28:06;;;;;;;;;;;21.40;35.90;;;;;;5073414;28;19970;-40
2022/03/22 10:30:34;;;;;;;;;;;21.40;35.90;;;;;;5072936;28;19972;-44
2022/03/22 10:33:03;;;;;;;;;;;21.50;36.00;;;;;;5073288;28;20135;-43
2022/03/22 10:35:31;;;;;;;;;;;21.50;35.90;;;;;;5072996;28;20015;-42
2022/03/22 10:38:00;;;;;;;;;;;21.50;35.90;;;;;;5075049;28;19991;-41
2022/03/22 10:40:29;;;;;;;;;;;21.50;35.90;;;;;;5075816;28;19971;-39
2022/03/22 10:43:07;;;;;;;;;;;21.50;35.90;;;;;;5077287;28;19932;-45
2022/03/22 10:46:05;;;;;;;;;;;21.50;36.40;;;;;;5077295;28;19994;-42
2022/03/22 10:48:36;;;;;;;;;;;21.50;35.80;;;;;;5065224;28;19928;-40
2022/03/22 10:51:03;;;;;;;;;;;21.60;35.90;;;;;;5076729;28;19950;-42
2022/03/22 10:53:31;;;;;;;;;;;21.60;35.80;;;;;;5076762;28;20437;-40
2022/03/22 10:55:59;;;;;;;;;;;21.60;35.80;;;;;;5074913;28;20376;-49
2022/03/22 10:58:28;;;;;;;;;;;21.60;35.80;;;;;;5076749;28;20395;-46
2022/03/22 11:00:56;;;;;;;;;;;21.60;35.80;;;;;;5077534;28;19932;-41
2022/03/22 11:03:25;;;;;;;;;;;21.60;35.80;;;;;;5076648;28;19928;-45
2022/03/22 11:05:53;;;;;;;;;;;21.70;35.80;;;;;;5076854;28;19960;-42
2022/03/22 11:08:22;;;;;;;;;;;21.70;35.80;;;;;;5076842;28;19935;-42
2022/03/22 11:10:51;;;;;;;;;;;21.70;35.80;;;;;;5074809;28;19955;-39
2022/03/22 11:13:18;;;;;;;;;;;21.70;35.70;;;;;;5076464;28;20443;-40
2022/03/22 11:15:46;;;;;;;;;;;21.70;35.70;;;;;;5076909;28;19924;-41
2022/03/22 11:18:14;;;;;;;;;;;21.70;35.70;;;;;;5076365;28;19974;-40
2022/03/22 11:20:48;;;;;;;;;;;21.70;35.60;;;;;;5076577;28;20460;-41
2022/03/22 11:23:18;;;;;;;;;;;21.70;35.60;;;;;;5077086;28;19924;-40
2022/03/22 11:25:45;;;;;;;;;;;21.80;35.60;;;;;;5075069;28;19925;-41
2022/03/22 11:28:13;;;;;;;;;;;21.80;35.70;;;;;;5076182;28;19925;-45
2022/03/22 11:30:41;;;;;;;;;;;21.80;35.60;;;;;;5075718;28;19974;-41
2022/03/22 11:35:57;;;;;;;;;;;21.80;36.20;;;;;;5076395;28;19954;-40
2022/03/22 11:38:36;;;;;;;;;;;21.80;35.60;;;;;;5076208;28;19929;-40
2022/03/22 11:43:48;;;;;;;;;;;21.80;35.50;;;;;;5056230;28;19967;-43
2022/03/22 11:46:15;;;;;;;;;;;21.80;35.50;;;;;;5055818;28;20023;-41
2022/03/22 11:48:42;;;;;;;;;;;21.90;35.60;;;;;;5055203;28;20347;-41
2022/03/22 11:51:10;;;;;;;;;;;21.90;35.60;;;;;;5055394;28;20024;-41
2022/03/22 11:53:42;;;;;;;;;;;21.90;35.60;;;;;;5055632;28;19974;-43
2022/03/22 11:56:09;;;;;;;;;;;21.80;35.50;;;;;;5054747;28;19925;-40
2022/03/22 11:58:37;;;;;;;;;;;21.80;35.50;;;;;;5055597;28;19924;-40
2022/03/22 12:01:22;;;;;;;;;;;21.80;35.60;;;;;;5055620;28;19925;-40
2022/03/22 12:03:53;;;;;;;;;;;21.80;35.60;;;;;;5055866;28;19987;-40
2022/03/22 12:06:21;;;;;;;;;;;21.90;35.90;;;;;;5055473;28;20483;-40
2022/03/22 12:08:48;;;;;;;;;;;21.90;35.60;;;;;;5055848;28;19970;-40
2022/03/22 12:11:16;;;;;;;;;;;21.90;35.60;;;;;;5058122;28;19924;-42
2022/03/22 12:13:44;;;;;;;;;;;21.90;35.60;;;;;;5076203;28;20380;-40
2022/03/22 12:16:11;;;;;;;;;;;21.90;35.60;;;;;;5075618;28;20291;-40
2022/03/22 12:18:39;;;;;;;;;;;21.90;35.60;;;;;;5075229;28;20014;-43
2022/03/22 12:21:15;;;;;;;;;;;21.90;35.60;;;;;;5074856;28;19978;-42
2022/03/22 12:23:43;;;;;;;;;;;21.90;35.60;;;;;;5075208;28;19974;-40
2022/03/22 12:26:10;;;;;;;;;;;21.90;35.60;;;;;;5073999;28;19929;-41
2022/03/22 12:28:51;;;;;;;;;;;21.90;35.60;;;;;;5075056;28;19924;-43
2022/03/22 12:31:21;;;;;;;;;;;21.90;35.60;;;;;;5075322;28;19986;-44
2022/03/22 12:33:50;;;;;;;;;;;21.90;35.60;;;;;;5075171;28;19963;-41
2022/03/22 12:36:18;;;;;;;;;;;21.90;35.60;;;;;;5074868;28;20345;-42
2022/03/22 12:38:45;;;;;;;;;;;21.90;35.60;;;;;;5074738;28;20368;-44
2022/03/22 12:41:12;;;;;;;;;;;21.90;35.60;;;;;;5072893;28;19978;-40
2022/03/22 12:43:45;;;;;;;;;;;21.90;35.60;;;;;;5054780;28;19947;-44
2022/03/22 12:46:14;;;;;;;;;;;21.90;35.60;;;;;;5054806;28;19978;-41
2022/03/22 12:48:41;;;;;;;;;;;21.90;35.60;;;;;;5055805;28;20300;-43
2022/03/22 12:51:11;;;;;;;;;;;21.90;35.70;;;;;;5054658;28;20019;-41
2022/03/22 12:53:38;;;;;;;;;;;21.90;35.70;;;;;;5054891;28;19968;-41
2022/03/22 12:56:14;;;;;;;;;;;21.90;36.00;;;;;;5054870;28;20015;-42
2022/03/22 12:58:41;;;;;;;;;;;21.90;35.70;;;;;;5074121;28;20007;-42
2022/03/22 13:01:08;;;;;;;;;;;21.80;35.60;;;;;;5056385;28;19932;-40
2022/03/22 13:03:36;;;;;;;;;;;21.80;35.60;;;;;;5074338;28;19925;-40
2022/03/22 13:06:05;;;;;;;;;;;21.80;35.60;;;;;;5074679;28;20284;-41
2022/03/22 13:11:28;;;;;;;;;;;21.80;35.70;;;;;;5074196;28;20019;-44
2022/03/22 13:16:51;;;;;;;;;;;21.80;35.70;;;;;;5074047;28;19932;-44
2022/03/22 13:19:18;;;;;;;;;;;21.80;35.70;;;;;;5074416;28;20342;-41
2022/03/22 13:21:45;;;;;;;;;;;21.80;35.70;;;;;;5073691;28;20011;-39
2022/03/22 13:24:17;;;;;;;;;;;21.80;35.80;;;;;;5056182;28;19974;-41
2022/03/22 13:26:55;;;;;;;;;;;21.80;35.80;;;;;;5071416;28;20368;-42
2022/03/22 13:29:24;;;;;;;;;;;21.80;35.80;;;;;;5053975;28;20019;-40
2022/03/22 13:31:55;;;;;;;;;;;21.80;35.80;;;;;;5052661;28;19925;-40
2022/03/22 13:34:27;;;;;;;;;;;21.80;35.80;;;;;;5053904;28;19925;-40
2022/03/22 13:37:04;;;;;;;;;;;21.80;35.80;;;;;;5053888;28;20451;-41
2022/03/22 13:39:31;;;;;;;;;;;21.80;35.80;;;;;;5053672;28;20015;-40
2022/03/22 13:42:12;;;;;;;;;;;21.80;35.80;;;;;;5053542;28;19974;-40
2022/03/22 13:44:46;;;;;;;;;;;21.80;35.80;;;;;;5053964;28;19924;-39
2022/03/22 13:47:32;;;;;;;;;;;21.80;35.80;;;;;;5053695;28;19968;-42
2022/03/22 13:50:15;;;;;;;;;;;21.80;35.80;;;;;;5053998;28;19924;-40
2022/03/22 13:52:43;;;;;;;;;;;21.80;35.80;;;;;;5053743;28;19991;-41
2022/03/22 13:55:14;;;;;;;;;;;21.80;35.80;;;;;;5053588;28;20019;-44
2022/03/22 13:57:41;;;;;;;;;;;21.80;35.80;;;;;;5059149;28;19924;-42
2022/03/22 14:00:09;;;;;;;;;;;21.80;35.80;;;;;;5074490;28;19932;-46
2022/03/22 14:02:36;;;;;;;;;;;21.80;35.90;;;;;;5073922;28;20330;-41
2022/03/22 14:05:04;;;;;;;;;;;21.80;35.80;;;;;;5073829;28;19928;-42
2022/03/22 14:07:31;;;;;;;;;;;21.80;35.80;;;;;;5074035;28;20038;-42
2022/03/22 14:09:57;;;;;;;;;;;21.80;35.80;;;;;;5073837;28;19925;-43
2022/03/22 14:12:24;;;;;;;;;;;21.80;35.90;;;;;;5069680;28;19939;-40
2022/03/22 14:14:51;;;;;;;;;;;21.80;35.90;;;;;;5057640;28;19964;-39
2022/03/22 14:17:18;;;;;;;;;;;21.80;35.90;;;;;;5057544;28;19976;-44
2022/03/22 14:19:45;;;;;;;;;;;21.80;35.90;;;;;;5057853;28;19928;-39
2022/03/22 14:22:12;;;;;;;;;;;21.80;35.90;;;;;;5057231;28;20376;-39
2022/03/22 14:24:39;;;;;;;;;;;21.80;35.90;;;;;;5057648;28;19925;-41
2022/03/22 14:27:06;;;;;;;;;;;21.80;35.90;;;;;;5057692;28;20338;-41
2022/03/22 14:29:33;;;;;;;;;;;21.80;35.90;;;;;;5075741;28;20403;-40
2022/03/22 14:32:00;;;;;;;;;;;21.80;35.90;;;;;;5077488;28;19972;-39
2022/03/22 14:37:14;;;;;;;;;;;21.80;35.90;;;;;;5077268;28;20439;-41
2022/03/22 14:39:41;;;;;;;;;;;21.80;35.90;;;;;;5077320;28;19974;-41
2022/03/22 14:42:10;;;;;;;;;;;21.80;36.00;;;;;;5077073;28;19964;-45
2022/03/22 14:44:37;;;;;;;;;;;21.70;35.80;;;;;;5075630;28;19975;-40
2022/03/22 14:47:05;;;;;;;;;;;21.70;35.80;;;;;;5077267;28;19978;-40
2022/03/22 14:49:32;;;;;;;;;;;21.70;36.50;;;;;;5076946;28;19925;-40
2022/03/22 14:54:44;;;;;;;;;;;21.70;35.90;;;;;;5076925;28;19983;-41
2022/03/22 14:59:57;;;;;;;;;;;21.70;35.90;;;;;;5057020;28;20012;-41
2022/03/22 15:02:26;;;;;;;;;;;21.70;35.90;;;;;;5057044;28;19928;-40
2022/03/22 15:04:53;;;;;;;;;;;21.70;35.90;;;;;;5056714;28;19924;-40
2022/03/22 15:07:22;;;;;;;;;;;21.80;35.90;;;;;;5057133;28;19924;-42
2022/03/22 15:09:49;;;;;;;;;;;21.80;35.90;;;;;;5056835;28;19924;-39
2022/03/22 15:12:16;;;;;;;;;;;21.70;35.90;;;;;;5056432;28;19925;-40
2022/03/22 15:14:43;;;;;;;;;;;21.80;35.90;;;;;;5071797;28;19924;-39
2022/03/22 15:17:12;;;;;;;;;;;21.80;35.90;;;;;;5076461;28;20391;-40